Hardwood, Michigan
Current Conditions -  °F | °C
As of 3:35 AM on Sunday 26 Oct 2014 (Local Time) from KESC Reporting Station
Clear Clear  
Wind Chill: 41°   Ceiling: Unl
Heat Index: 45°   Visibility: 10mi
Dew Point: 28°   Wind: 7mph
Humidity: 53%   Direction: 290°WNW
Pressure: 29.88"   Gusts: NA
Location:  45.682°N, 87.2748°W
Report Text: KESC 260735Z AUTO 29006KT 10SM CLR 07/M02 A2988 RMK AO1
Loading
Personal Weather Stations






























Interactive Weather Map
Tropical Storm Tracking
New forecast layout! Learn more

10-Day Weather Forecast

Advertisements
Track Severe Weather on mobile